createdAt,value
2022-12-28T00:08:30.862Z,101148.16
2022-12-28T00:18:36.459Z,101134.50
2022-12-28T00:28:39.818Z,101137.94
2022-12-28T00:38:44.658Z,101120.91
2022-12-28T00:48:47.821Z,101118.34
2022-12-28T00:58:57.491Z,101110.69
2022-12-28T01:09:01.253Z,101096.16
2022-12-28T01:19:07.735Z,101077.41
2022-12-28T01:29:10.820Z,101058.63
2022-12-28T01:39:15.285Z,101047.53
2022-12-28T01:49:21.389Z,101024.50
2022-12-28T01:59:29.393Z,101003.16
2022-12-28T02:09:39.106Z,100974.13
2022-12-28T02:19:46.722Z,100967.31
2022-12-28T02:30:02.918Z,100962.19
2022-12-28T02:40:10.713Z,100939.09
2022-12-28T02:50:17.551Z,100933.13
2022-12-28T03:00:22.939Z,100920.28
2022-12-28T03:10:32.593Z,100888.66
2022-12-28T03:20:52.862Z,100868.19
2022-12-28T03:31:07.500Z,100852.75
2022-12-28T03:41:17.882Z,100844.13
2022-12-28T03:51:27.107Z,100832.97
2022-12-28T04:01:31.071Z,100818.47
2022-12-28T04:11:35.643Z,100806.47
2022-12-28T04:21:38.832Z,100778.22
2022-12-28T04:31:43.547Z,100761.81
2022-12-28T04:41:49.612Z,100760.09
2022-12-28T04:51:53.968Z,100767.78
2022-12-28T05:01:57.198Z,100749.69
2022-12-28T05:12:01.806Z,100735.97
2022-12-28T05:22:05.043Z,100741.81
2022-12-28T05:32:09.611Z,100736.47
2022-12-28T05:42:12.863Z,100723.72
2022-12-28T05:52:17.115Z,100689.53
2022-12-28T06:02:24.517Z,100686.88
2022-12-28T06:12:29.308Z,100684.34
2022-12-28T06:22:32.286Z,100670.66
2022-12-28T06:32:36.899Z,100659.41
2022-12-28T06:42:40.121Z,100647.25
2022-12-28T06:52:44.742Z,100640.34
2022-12-28T07:02:48.067Z,100627.44
2022-12-28T07:12:52.405Z,100632.88
2022-12-28T07:22:56.031Z,100639.41
2022-12-28T07:33:00.453Z,100633.25
2022-12-28T07:43:03.896Z,100627.09
2022-12-28T07:53:08.093Z,100618.53
2022-12-28T08:03:11.256Z,100621.19
2022-12-28T08:13:15.531Z,100623.84
2022-12-28T08:23:18.323Z,100627.13
2022-12-28T08:33:22.525Z,100640.63
2022-12-28T08:43:25.847Z,100647.50
2022-12-28T08:53:30.460Z,100645.69
2022-12-28T09:03:34.037Z,100645.56
2022-12-28T09:13:38.777Z,100639.53
2022-12-28T09:23:42.677Z,100645.25
2022-12-28T09:44:46.365Z,100639.72
2022-12-28T09:54:50.732Z,100641.50
2022-12-28T10:04:54.205Z,100637.22
2022-12-28T10:15:00.335Z,100639.72
2022-12-28T10:25:03.377Z,100631.22
2022-12-28T10:35:11.412Z,100622.56
2022-12-28T10:45:19.258Z,100599.28
2022-12-28T10:55:30.883Z,100585.31
2022-12-28T11:05:33.925Z,100577.47
2022-12-28T11:15:38.179Z,100570.66
2022-12-28T11:25:42.476Z,100568.19
2022-12-28T11:35:47.293Z,100556.06
2022-12-28T11:45:55.751Z,100548.34
2022-12-28T11:56:08.030Z,100541.44
2022-12-28T12:06:11.156Z,100533.50
2022-12-28T12:16:26.079Z,100518.25
2022-12-28T12:26:38.023Z,100500.31
2022-12-28T12:37:07.399Z,100493.31
2022-12-28T12:47:31.986Z,100487.97
2022-12-28T12:57:46.146Z,100473.13
2022-12-28T13:07:50.553Z,100462.25
2022-12-28T13:18:42.875Z,100445.38
2022-12-28T13:28:29.376Z,100426.63
2022-12-28T13:38:33.738Z,100404.53
2022-12-28T13:48:39.753Z,100386.09
2022-12-28T13:58:49.609Z,100366.44
2022-12-28T14:08:52.730Z,100359.44
2022-12-28T14:18:58.378Z,100340.88
2022-12-28T14:29:02.143Z,100330.66
2022-12-28T14:39:07.796Z,100309.13
2022-12-28T14:49:33.467Z,100285.78
2022-12-28T14:59:43.828Z,100288.31
2022-12-28T15:09:47.002Z,100273.69
2022-12-28T15:19:51.269Z,100244.41
2022-12-28T15:30:05.626Z,100242.59
2022-12-28T15:40:12.823Z,100239.22
2022-12-28T15:50:15.808Z,100242.50
2022-12-28T16:00:20.664Z,100232.13
2022-12-28T16:10:23.576Z,100223.72
2022-12-28T16:20:30.353Z,100209.16
2022-12-28T16:30:48.545Z,100201.50
2022-12-28T16:40:52.712Z,100161.97
2022-12-28T16:50:59.387Z,100156.78
2022-12-28T17:01:08.936Z,100143.91
2022-12-28T17:11:12.850Z,100117.38
2022-12-28T17:21:17.034Z,100083.94
2022-12-28T17:31:21.860Z,100082.84
2022-12-28T17:41:28.540Z,100057.03
2022-12-28T17:51:31.587Z,100044.03
2022-12-28T18:01:36.042Z,100036.34
2022-12-28T18:11:39.061Z,100032.09
2022-12-28T18:21:43.434Z,100016.75
2022-12-28T18:31:46.435Z,100012.47
2022-12-28T18:41:51.018Z,100001.91
2022-12-28T18:51:54.913Z,99985.84
2022-12-28T19:02:08.948Z,99957.63
2022-12-28T19:12:13.890Z,99937.53
2022-12-28T19:22:18.590Z,99890.34
2022-12-28T19:32:21.639Z,99877.34
2022-12-28T19:42:25.961Z,99886.44
2022-12-28T19:52:29.151Z,99874.31
2022-12-28T20:02:33.778Z,99860.53
2022-12-28T20:12:37.066Z,99853.50
2022-12-28T20:22:42.460Z,99827.56
2022-12-28T20:32:45.526Z,99824.25
2022-12-28T20:43:07.557Z,99829.44
2022-12-28T20:53:10.460Z,99821.88
2022-12-28T21:03:15.161Z,99814.13
2022-12-28T21:13:18.249Z,99820.78
2022-12-28T21:23:22.591Z,99813.72
2022-12-28T21:33:25.885Z,99813.59
2022-12-28T21:43:30.411Z,99797.25
2022-12-28T21:53:33.867Z,99778.31
2022-12-28T22:03:56.379Z,99780.75
2022-12-28T22:13:59.424Z,99776.41
2022-12-28T22:24:03.817Z,99764.34
2022-12-28T22:34:07.668Z,99760.78
2022-12-28T22:44:12.145Z,99752.03
2022-12-28T22:54:15.350Z,99748.28
2022-12-28T23:04:19.940Z,99742.97
2022-12-28T23:14:43.310Z,99742.41
2022-12-28T23:25:05.297Z,99728.03
2022-12-28T23:35:08.971Z,99729.09
2022-12-28T23:45:16.242Z,99723.53
2022-12-28T23:55:19.489Z,99708.84
